sensor_id;sensor_type;location;lat;lon;timestamp;pressure;altitude;pressure_sealevel;temperature;humidity
43989;BME280;54163;51.386;7.178;2022-08-07T00:02:05;101595.16;;;16.23;67.40
43989;BME280;54163;51.386;7.178;2022-08-07T00:04:32;101598.97;;;16.21;67.60
43989;BME280;54163;51.386;7.178;2022-08-07T00:06:58;101590.72;;;16.22;67.89
43989;BME280;54163;51.386;7.178;2022-08-07T00:09:26;101592.81;;;16.19;68.06
43989;BME280;54163;51.386;7.178;2022-08-07T00:11:53;101585.75;;;16.16;68.17
43989;BME280;54163;51.386;7.178;2022-08-07T00:14:20;101586.59;;;16.17;68.26
43989;BME280;54163;51.386;7.178;2022-08-07T00:16:48;101576.00;;;16.13;68.40
43989;BME280;54163;51.386;7.178;2022-08-07T00:19:15;101580.44;;;16.02;68.86
43989;BME280;54163;51.386;7.178;2022-08-07T00:21:43;101578.69;;;16.01;68.72
43989;BME280;54163;51.386;7.178;2022-08-07T00:24:10;101569.28;;;15.94;69.20
43989;BME280;54163;51.386;7.178;2022-08-07T00:26:37;101585.53;;;15.94;69.18
43989;BME280;54163;51.386;7.178;2022-08-07T00:29:04;101576.41;;;15.95;68.94
43989;BME280;54163;51.386;7.178;2022-08-07T00:31:31;101575.31;;;15.85;69.55
43989;BME280;54163;51.386;7.178;2022-08-07T00:34:00;101565.25;;;15.74;70.09
43989;BME280;54163;51.386;7.178;2022-08-07T00:36:27;101575.31;;;15.72;70.25
43989;BME280;54163;51.386;7.178;2022-08-07T00:38:55;101573.88;;;15.67;70.38
43989;BME280;54163;51.386;7.178;2022-08-07T00:41:26;101574.88;;;15.66;70.54
43989;BME280;54163;51.386;7.178;2022-08-07T00:43:53;101570.22;;;15.68;70.35
43989;BME280;54163;51.386;7.178;2022-08-07T00:46:20;101570.31;;;15.66;70.42
43989;BME280;54163;51.386;7.178;2022-08-07T00:48:47;101568.91;;;15.73;70.42
43989;BME280;54163;51.386;7.178;2022-08-07T00:51:16;101570.50;;;15.63;70.88
43989;BME280;54163;51.386;7.178;2022-08-07T00:53:43;101563.72;;;15.70;70.64
43989;BME280;54163;51.386;7.178;2022-08-07T00:56:10;101567.22;;;15.72;70.40
43989;BME280;54163;51.386;7.178;2022-08-07T00:58:41;101560.69;;;15.62;70.70
43989;BME280;54163;51.386;7.178;2022-08-07T01:01:09;101564.91;;;15.53;71.14
43989;BME280;54163;51.386;7.178;2022-08-07T01:03:36;101559.41;;;15.41;71.56
43989;BME280;54163;51.386;7.178;2022-08-07T01:06:03;101558.56;;;15.40;71.69
43989;BME280;54163;51.386;7.178;2022-08-07T01:08:32;101559.50;;;15.53;71.24
43989;BME280;54163;51.386;7.178;2022-08-07T01:10:59;101555.59;;;15.57;70.54
43989;BME280;54163;51.386;7.178;2022-08-07T01:13:28;101561.88;;;15.58;70.69
43989;BME280;54163;51.386;7.178;2022-08-07T01:15:58;101557.13;;;15.62;70.37
43989;BME280;54163;51.386;7.178;2022-08-07T01:18:24;101550.84;;;15.61;70.30
43989;BME280;54163;51.386;7.178;2022-08-07T01:21:04;101556.38;;;15.59;70.12
43989;BME280;54163;51.386;7.178;2022-08-07T01:23:34;101560.31;;;15.54;70.08
43989;BME280;54163;51.386;7.178;2022-08-07T01:26:02;101547.69;;;15.54;70.29
43989;BME280;54163;51.386;7.178;2022-08-07T01:28:30;101553.28;;;15.51;70.12
43989;BME280;54163;51.386;7.178;2022-08-07T01:30:57;101547.22;;;15.48;70.48
43989;BME280;54163;51.386;7.178;2022-08-07T01:33:26;101551.69;;;15.49;70.50
43989;BME280;54163;51.386;7.178;2022-08-07T01:35:55;101544.03;;;15.41;70.94
43989;BME280;54163;51.386;7.178;2022-08-07T01:38:27;101540.78;;;15.36;71.13
43989;BME280;54163;51.386;7.178;2022-08-07T01:41:02;101546.81;;;15.27;71.36
43989;BME280;54163;51.386;7.178;2022-08-07T01:43:30;101550.16;;;15.18;72.06
43989;BME280;54163;51.386;7.178;2022-08-07T01:45:58;101537.03;;;15.12;72.41
43989;BME280;54163;51.386;7.178;2022-08-07T01:48:27;101538.75;;;15.13;71.88
43989;BME280;54163;51.386;7.178;2022-08-07T01:50:59;101534.94;;;15.03;72.48
43989;BME280;54163;51.386;7.178;2022-08-07T01:53:28;101538.81;;;14.99;72.96
43989;BME280;54163;51.386;7.178;2022-08-07T01:56:02;101538.28;;;14.94;73.18
43989;BME280;54163;51.386;7.178;2022-08-07T01:58:36;101540.38;;;14.89;73.44
43989;BME280;54163;51.386;7.178;2022-08-07T02:01:08;101535.56;;;14.94;73.02
43989;BME280;54163;51.386;7.178;2022-08-07T02:03:41;101532.13;;;14.78;73.36
43989;BME280;54163;51.386;7.178;2022-08-07T02:06:12;101532.75;;;14.69;74.31
43989;BME280;54163;51.386;7.178;2022-08-07T02:08:46;101531.94;;;14.67;74.00
43989;BME280;54163;51.386;7.178;2022-08-07T02:11:14;101531.47;;;14.74;73.70
43989;BME280;54163;51.386;7.178;2022-08-07T02:13:43;101542.53;;;14.84;73.17
43989;BME280;54163;51.386;7.178;2022-08-07T02:16:11;101534.13;;;14.88;73.13
43989;BME280;54163;51.386;7.178;2022-08-07T02:18:41;101532.81;;;14.81;73.17
43989;BME280;54163;51.386;7.178;2022-08-07T02:21:09;101535.38;;;14.83;73.15
43989;BME280;54163;51.386;7.178;2022-08-07T02:23:38;101527.13;;;14.72;73.93
43989;BME280;54163;51.386;7.178;2022-08-07T02:26:09;101528.50;;;14.65;74.16
43989;BME280;54163;51.386;7.178;2022-08-07T02:28:37;101534.56;;;14.54;74.05
43989;BME280;54163;51.386;7.178;2022-08-07T02:31:05;101523.00;;;14.66;73.83
43989;BME280;54163;51.386;7.178;2022-08-07T02:33:35;101525.22;;;14.60;73.98
43989;BME280;54163;51.386;7.178;2022-08-07T02:36:05;101522.50;;;14.74;73.59
43989;BME280;54163;51.386;7.178;2022-08-07T02:38:36;101522.59;;;14.72;73.38
43989;BME280;54163;51.386;7.178;2022-08-07T02:41:05;101519.53;;;14.64;73.88
43989;BME280;54163;51.386;7.178;2022-08-07T02:43:37;101524.44;;;14.58;73.93
43989;BME280;54163;51.386;7.178;2022-08-07T02:46:09;101523.97;;;14.65;73.90
43989;BME280;54163;51.386;7.178;2022-08-07T02:48:38;101528.34;;;14.53;74.35
43989;BME280;54163;51.386;7.178;2022-08-07T02:51:09;101521.38;;;14.49;74.61
43989;BME280;54163;51.386;7.178;2022-08-07T02:53:38;101525.56;;;14.41;74.84
43989;BME280;54163;51.386;7.178;2022-08-07T02:56:12;101518.88;;;14.46;74.47
43989;BME280;54163;51.386;7.178;2022-08-07T02:58:43;101520.16;;;14.41;74.85
43989;BME280;54163;51.386;7.178;2022-08-07T03:01:11;101524.69;;;14.40;74.59
43989;BME280;54163;51.386;7.178;2022-08-07T03:03:39;101517.72;;;14.36;74.71
43989;BME280;54163;51.386;7.178;2022-08-07T03:06:07;101525.16;;;14.33;75.21
43989;BME280;54163;51.386;7.178;2022-08-07T03:08:36;101518.09;;;14.30;75.09
43989;BME280;54163;51.386;7.178;2022-08-07T03:11:03;101524.97;;;14.36;75.25
43989;BME280;54163;51.386;7.178;2022-08-07T03:13:36;101518.69;;;14.21;75.71
43989;BME280;54163;51.386;7.178;2022-08-07T03:16:04;101525.63;;;14.25;75.80
43989;BME280;54163;51.386;7.178;2022-08-07T03:18:31;101521.19;;;14.24;75.69
43989;BME280;54163;51.386;7.178;2022-08-07T03:20:59;101518.22;;;14.29;75.50
43989;BME280;54163;51.386;7.178;2022-08-07T03:23:27;101513.41;;;14.34;75.17
43989;BME280;54163;51.386;7.178;2022-08-07T03:25:56;101514.28;;;14.34;74.90
43989;BME280;54163;51.386;7.178;2022-08-07T03:28:29;101513.00;;;14.26;75.11
43989;BME280;54163;51.386;7.178;2022-08-07T03:30:58;101521.19;;;14.24;74.97
43989;BME280;54163;51.386;7.178;2022-08-07T03:33:42;101516.47;;;14.28;74.81
43989;BME280;54163;51.386;7.178;2022-08-07T03:36:11;101517.53;;;14.25;74.87
43989;BME280;54163;51.386;7.178;2022-08-07T03:38:41;101509.91;;;14.18;74.86
43989;BME280;54163;51.386;7.178;2022-08-07T03:41:10;101515.97;;;14.21;75.20
43989;BME280;54163;51.386;7.178;2022-08-07T03:43:38;101511.25;;;14.25;74.74
43989;BME280;54163;51.386;7.178;2022-08-07T03:46:07;101505.94;;;14.23;74.58
43989;BME280;54163;51.386;7.178;2022-08-07T03:48:35;101508.84;;;14.20;74.60
43989;BME280;54163;51.386;7.178;2022-08-07T03:51:05;101507.13;;;14.19;74.92
43989;BME280;54163;51.386;7.178;2022-08-07T03:53:38;101505.38;;;14.18;74.71
43989;BME280;54163;51.386;7.178;2022-08-07T03:56:06;101509.50;;;14.24;74.41
43989;BME280;54163;51.386;7.178;2022-08-07T03:58:38;101505.31;;;14.34;73.82
43989;BME280;54163;51.386;7.178;2022-08-07T04:01:08;101510.50;;;14.37;73.39
43989;BME280;54163;51.386;7.178;2022-08-07T04:03:37;101505.09;;;14.37;73.34
43989;BME280;54163;51.386;7.178;2022-08-07T04:06:08;101497.25;;;14.32;73.58
43989;BME280;54163;51.386;7.178;2022-08-07T04:08:38;101502.97;;;14.28;73.85
43989;BME280;54163;51.386;7.178;2022-08-07T04:11:06;101505.00;;;14.24;73.71
43989;BME280;54163;51.386;7.178;2022-08-07T04:13:34;101507.72;;;14.10;74.28
43989;BME280;54163;51.386;7.178;2022-08-07T04:16:02;101511.16;;;14.12;74.37
43989;BME280;54163;51.386;7.178;2022-08-07T04:18:31;101507.03;;;14.07;74.78
43989;BME280;54163;51.386;7.178;2022-08-07T04:20:59;101502.69;;;13.90;75.18
43989;BME280;54163;51.386;7.178;2022-08-07T04:23:29;101503.34;;;13.93;75.20
43989;BME280;54163;51.386;7.178;2022-08-07T04:25:58;101512.59;;;13.89;75.62
43989;BME280;54163;51.386;7.178;2022-08-07T04:28:25;101505.19;;;13.79;76.09
43989;BME280;54163;51.386;7.178;2022-08-07T04:30:52;101513.38;;;13.91;75.67
43989;BME280;54163;51.386;7.178;2022-08-07T04:33:23;101509.22;;;13.86;76.15
43989;BME280;54163;51.386;7.178;2022-08-07T04:35:52;101507.13;;;14.05;75.65
43989;BME280;54163;51.386;7.178;2022-08-07T04:38:24;101511.84;;;14.16;75.10
43989;BME280;54163;51.386;7.178;2022-08-07T04:40:53;101505.22;;;14.07;75.82
43989;BME280;54163;51.386;7.178;2022-08-07T04:43:26;101514.63;;;14.14;75.47
43989;BME280;54163;51.386;7.178;2022-08-07T04:46:00;101514.31;;;14.05;75.98
43989;BME280;54163;51.386;7.178;2022-08-07T04:48:40;101509.53;;;14.10;76.22
43989;BME280;54163;51.386;7.178;2022-08-07T04:51:20;101526.78;;;14.21;75.97
43989;BME280;54163;51.386;7.178;2022-08-07T04:53:58;101528.50;;;14.22;75.81
43989;BME280;54163;51.386;7.178;2022-08-07T04:56:37;101528.81;;;14.32;75.53
43989;BME280;54163;51.386;7.178;2022-08-07T04:59:13;101530.44;;;14.48;74.60
43989;BME280;54163;51.386;7.178;2022-08-07T05:01:47;101527.38;;;14.40;75.26
43989;BME280;54163;51.386;7.178;2022-08-07T05:04:18;101520.44;;;14.36;75.56
43989;BME280;54163;51.386;7.178;2022-08-07T05:06:55;101519.16;;;14.42;75.58
43989;BME280;54163;51.386;7.178;2022-08-07T05:09:31;101527.66;;;14.50;75.15
43989;BME280;54163;51.386;7.178;2022-08-07T05:12:06;101523.28;;;14.62;74.64
43989;BME280;54163;51.386;7.178;2022-08-07T05:14:37;101517.50;;;14.68;74.44
43989;BME280;54163;51.386;7.178;2022-08-07T05:17:08;101524.25;;;14.61;74.78
43989;BME280;54163;51.386;7.178;2022-08-07T05:19:40;101528.13;;;14.57;75.29
43989;BME280;54163;51.386;7.178;2022-08-07T05:22:10;101523.28;;;14.62;75.50
43989;BME280;54163;51.386;7.178;2022-08-07T05:24:41;101525.72;;;14.66;75.64
43989;BME280;54163;51.386;7.178;2022-08-07T05:27:13;101529.63;;;14.75;75.15
43989;BME280;54163;51.386;7.178;2022-08-07T05:29:42;101533.75;;;14.80;75.14
43989;BME280;54163;51.386;7.178;2022-08-07T05:32:11;101539.09;;;14.68;75.53
43989;BME280;54163;51.386;7.178;2022-08-07T05:34:40;101536.00;;;14.74;75.68
43989;BME280;54163;51.386;7.178;2022-08-07T05:37:08;101531.34;;;14.76;75.78
43989;BME280;54163;51.386;7.178;2022-08-07T05:39:42;101541.00;;;14.80;75.89
43989;BME280;54163;51.386;7.178;2022-08-07T05:42:13;101538.97;;;14.83;76.00
43989;BME280;54163;51.386;7.178;2022-08-07T05:44:43;101541.94;;;14.93;75.68
43989;BME280;54163;51.386;7.178;2022-08-07T05:47:10;101537.53;;;15.04;75.33
43989;BME280;54163;51.386;7.178;2022-08-07T05:49:38;101538.59;;;15.16;74.60
43989;BME280;54163;51.386;7.178;2022-08-07T05:52:05;101541.06;;;15.19;74.35
43989;BME280;54163;51.386;7.178;2022-08-07T05:54:34;101552.44;;;15.24;74.13
43989;BME280;54163;51.386;7.178;2022-08-07T05:57:02;101548.41;;;15.17;74.09
43989;BME280;54163;51.386;7.178;2022-08-07T05:59:36;101546.31;;;15.35;73.58
43989;BME280;54163;51.386;7.178;2022-08-07T06:02:05;101548.81;;;15.38;73.35
43989;BME280;54163;51.386;7.178;2022-08-07T06:04:36;101542.59;;;15.50;73.00
43989;BME280;54163;51.386;7.178;2022-08-07T06:07:06;101549.53;;;15.67;72.20
43989;BME280;54163;51.386;7.178;2022-08-07T06:09:39;101547.28;;;15.73;71.95
43989;BME280;54163;51.386;7.178;2022-08-07T06:12:07;101549.56;;;15.79;71.72
43989;BME280;54163;51.386;7.178;2022-08-07T06:14:36;101553.88;;;15.82;71.49
43989;BME280;54163;51.386;7.178;2022-08-07T06:17:04;101554.25;;;15.90;71.48
43989;BME280;54163;51.386;7.178;2022-08-07T06:19:38;101550.88;;;15.99;71.14
43989;BME280;54163;51.386;7.178;2022-08-07T06:22:07;101559.22;;;15.96;71.87
43989;BME280;54163;51.386;7.178;2022-08-07T06:24:34;101561.50;;;16.14;70.80
43989;BME280;54163;51.386;7.178;2022-08-07T06:27:02;101560.53;;;16.16;71.01
43989;BME280;54163;51.386;7.178;2022-08-07T06:29:29;101553.81;;;16.21;71.20
43989;BME280;54163;51.386;7.178;2022-08-07T06:31:57;101556.94;;;16.28;70.90
43989;BME280;54163;51.386;7.178;2022-08-07T06:34:25;101560.72;;;16.38;70.69
43989;BME280;54163;51.386;7.178;2022-08-07T06:36:53;101556.06;;;16.52;69.92
43989;BME280;54163;51.386;7.178;2022-08-07T06:39:27;101549.56;;;16.67;69.39
43989;BME280;54163;51.386;7.178;2022-08-07T06:41:59;101549.41;;;16.82;68.83
43989;BME280;54163;51.386;7.178;2022-08-07T06:44:56;101547.88;;;16.90;68.98
43989;BME280;54163;51.386;7.178;2022-08-07T06:47:25;101547.69;;;17.04;68.47
43989;BME280;54163;51.386;7.178;2022-08-07T06:49:55;101537.66;;;17.17;68.24
43989;BME280;54163;51.386;7.178;2022-08-07T06:52:24;101537.78;;;17.40;67.26
43989;BME280;54163;51.386;7.178;2022-08-07T06:54:54;101544.22;;;17.50;67.00
43989;BME280;54163;51.386;7.178;2022-08-07T06:57:23;101533.53;;;17.59;66.71
43989;BME280;54163;51.386;7.178;2022-08-07T06:59:51;101537.19;;;17.71;66.42
43989;BME280;54163;51.386;7.178;2022-08-07T07:02:21;101548.19;;;17.81;65.97
43989;BME280;54163;51.386;7.178;2022-08-07T07:04:50;101537.09;;;17.95;65.80
43989;BME280;54163;51.386;7.178;2022-08-07T07:07:20;101534.19;;;18.09;65.56
43989;BME280;54163;51.386;7.178;2022-08-07T07:09:48;101536.16;;;18.18;65.00
43989;BME280;54163;51.386;7.178;2022-08-07T07:12:30;101532.06;;;18.35;64.51
43989;BME280;54163;51.386;7.178;2022-08-07T07:15:06;101537.38;;;18.47;64.13
43989;BME280;54163;51.386;7.178;2022-08-07T07:17:40;101536.56;;;18.58;63.24
43989;BME280;54163;51.386;7.178;2022-08-07T07:20:16;101529.88;;;18.73;63.25
43989;BME280;54163;51.386;7.178;2022-08-07T07:22:45;101532.91;;;18.91;62.72
43989;BME280;54163;51.386;7.178;2022-08-07T07:25:14;101536.59;;;19.01;62.10
43989;BME280;54163;51.386;7.178;2022-08-07T07:27:47;101531.00;;;19.13;61.35
43989;BME280;54163;51.386;7.178;2022-08-07T07:30:18;101539.13;;;19.24;60.80
43989;BME280;54163;51.386;7.178;2022-08-07T07:32:48;101534.53;;;19.36;60.54
43989;BME280;54163;51.386;7.178;2022-08-07T07:35:20;101533.50;;;19.48;59.62
43989;BME280;54163;51.386;7.178;2022-08-07T07:37:49;101532.31;;;19.62;58.96
43989;BME280;54163;51.386;7.178;2022-08-07T07:40:19;101532.88;;;19.76;58.64
43989;BME280;54163;51.386;7.178;2022-08-07T07:42:49;101536.22;;;19.90;58.32
43989;BME280;54163;51.386;7.178;2022-08-07T07:45:18;101532.00;;;19.97;58.17
43989;BME280;54163;51.386;7.178;2022-08-07T07:47:46;101524.88;;;20.05;57.83
43989;BME280;54163;51.386;7.178;2022-08-07T07:50:20;101529.66;;;20.13;58.00
43989;BME280;54163;51.386;7.178;2022-08-07T07:52:48;101520.94;;;20.19;57.81
43989;BME280;54163;51.386;7.178;2022-08-07T07:55:17;101514.94;;;20.25;57.63
43989;BME280;54163;51.386;7.178;2022-08-07T07:57:46;101520.69;;;20.52;56.26
43989;BME280;54163;51.386;7.178;2022-08-07T08:00:15;101512.50;;;20.52;55.16
43989;BME280;54163;51.386;7.178;2022-08-07T08:02:44;101514.75;;;20.77;54.50
43989;BME280;54163;51.386;7.178;2022-08-07T08:05:13;101511.75;;;20.90;54.03
43989;BME280;54163;51.386;7.178;2022-08-07T08:07:45;101506.38;;;21.09;53.57
43989;BME280;54163;51.386;7.178;2022-08-07T08:10:13;101504.81;;;21.16;53.39
43989;BME280;54163;51.386;7.178;2022-08-07T08:12:41;101510.41;;;21.24;53.33
43989;BME280;54163;51.386;7.178;2022-08-07T08:15:09;101506.38;;;21.38;52.67
43989;BME280;54163;51.386;7.178;2022-08-07T08:17:36;101506.81;;;21.43;52.13
43989;BME280;54163;51.386;7.178;2022-08-07T08:20:05;101513.13;;;21.43;51.88
43989;BME280;54163;51.386;7.178;2022-08-07T08:22:37;101509.13;;;21.57;50.80
43989;BME280;54163;51.386;7.178;2022-08-07T08:25:25;101502.22;;;21.63;50.03
43989;BME280;54163;51.386;7.178;2022-08-07T08:28:19;101495.59;;;21.65;49.44
43989;BME280;54163;51.386;7.178;2022-08-07T08:30:52;101500.59;;;21.89;48.50
43989;BME280;54163;51.386;7.178;2022-08-07T08:33:22;101499.91;;;22.24;47.25
43989;BME280;54163;51.386;7.178;2022-08-07T08:35:51;101500.50;;;22.27;45.53
43989;BME280;54163;51.386;7.178;2022-08-07T08:38:22;101496.28;;;22.33;43.69
43989;BME280;54163;51.386;7.178;2022-08-07T08:40:56;101496.56;;;22.39;43.57
43989;BME280;54163;51.386;7.178;2022-08-07T08:43:32;101485.78;;;22.38;43.41
43989;BME280;54163;51.386;7.178;2022-08-07T08:46:05;101498.13;;;22.42;43.15
43989;BME280;54163;51.386;7.178;2022-08-07T08:48:37;101492.22;;;22.46;42.54
43989;BME280;54163;51.386;7.178;2022-08-07T08:51:09;101490.84;;;22.60;41.43
43989;BME280;54163;51.386;7.178;2022-08-07T08:53:53;101495.13;;;22.72;40.76
43989;BME280;54163;51.386;7.178;2022-08-07T08:56:26;101494.53;;;22.78;40.49
43989;BME280;54163;51.386;7.178;2022-08-07T08:59:03;101484.66;;;22.85;40.22
43989;BME280;54163;51.386;7.178;2022-08-07T09:01:38;101482.59;;;22.97;40.77
43989;BME280;54163;51.386;7.178;2022-08-07T09:04:14;101486.03;;;22.99;41.05
43989;BME280;54163;51.386;7.178;2022-08-07T09:06:52;101490.13;;;23.13;40.34
43989;BME280;54163;51.386;7.178;2022-08-07T09:09:37;101479.53;;;23.00;40.24
43989;BME280;54163;51.386;7.178;2022-08-07T09:12:24;101483.91;;;23.11;39.54
43989;BME280;54163;51.386;7.178;2022-08-07T09:15:03;101476.88;;;23.08;39.02
43989;BME280;54163;51.386;7.178;2022-08-07T09:17:39;101474.31;;;23.07;38.58
43989;BME280;54163;51.386;7.178;2022-08-07T09:20:17;101468.97;;;23.05;38.85
43989;BME280;54163;51.386;7.178;2022-08-07T09:22:55;101472.13;;;23.10;38.70
43989;BME280;54163;51.386;7.178;2022-08-07T09:25:26;101470.88;;;23.22;39.04
43989;BME280;54163;51.386;7.178;2022-08-07T09:28:03;101479.53;;;23.35;39.16
43989;BME280;54163;51.386;7.178;2022-08-07T09:30:40;101477.78;;;23.44;39.01
43989;BME280;54163;51.386;7.178;2022-08-07T09:33:20;101472.22;;;23.53;38.58
43989;BME280;54163;51.386;7.178;2022-08-07T09:35:55;101473.59;;;23.58;38.79
43989;BME280;54163;51.386;7.178;2022-08-07T09:38:30;101474.53;;;23.66;38.14
43989;BME280;54163;51.386;7.178;2022-08-07T09:41:07;101476.47;;;23.74;37.42
43989;BME280;54163;51.386;7.178;2022-08-07T09:44:00;101466.31;;;23.66;37.96
43989;BME280;54163;51.386;7.178;2022-08-07T09:46:40;101460.56;;;23.77;37.60
43989;BME280;54163;51.386;7.178;2022-08-07T09:49:20;101466.28;;;23.84;36.71
43989;BME280;54163;51.386;7.178;2022-08-07T09:51:59;101465.44;;;23.91;36.41
43989;BME280;54163;51.386;7.178;2022-08-07T09:54:33;101466.50;;;23.90;37.02
43989;BME280;54163;51.386;7.178;2022-08-07T09:57:18;101466.81;;;23.87;37.31
43989;BME280;54163;51.386;7.178;2022-08-07T10:00:03;101459.75;;;24.10;36.90
43989;BME280;54163;51.386;7.178;2022-08-07T10:02:55;101465.09;;;24.12;36.68
43989;BME280;54163;51.386;7.178;2022-08-07T10:05:36;101460.63;;;24.11;37.04
43989;BME280;54163;51.386;7.178;2022-08-07T10:08:26;101453.81;;;24.15;36.91
43989;BME280;54163;51.386;7.178;2022-08-07T10:11:02;101451.63;;;24.19;36.84
43989;BME280;54163;51.386;7.178;2022-08-07T10:13:49;101455.41;;;24.26;36.89
43989;BME280;54163;51.386;7.178;2022-08-07T10:16:37;101451.50;;;24.28;37.50
43989;BME280;54163;51.386;7.178;2022-08-07T10:19:18;101445.34;;;24.34;37.18
43989;BME280;54163;51.386;7.178;2022-08-07T10:21:55;101443.50;;;24.43;36.79
43989;BME280;54163;51.386;7.178;2022-08-07T10:24:38;101440.47;;;24.62;37.31
43989;BME280;54163;51.386;7.178;2022-08-07T10:27:24;101431.09;;;24.81;37.14
43989;BME280;54163;51.386;7.178;2022-08-07T10:30:02;101437.50;;;24.89;35.71
43989;BME280;54163;51.386;7.178;2022-08-07T10:35:26;101436.19;;;24.68;36.03
43989;BME280;54163;51.386;7.178;2022-08-07T10:38:05;101433.28;;;24.69;35.57
43989;BME280;54163;51.386;7.178;2022-08-07T10:40:42;101422.34;;;24.77;36.00
43989;BME280;54163;51.386;7.178;2022-08-07T10:43:14;101427.00;;;24.85;36.36
43989;BME280;54163;51.386;7.178;2022-08-07T10:45:46;101425.75;;;24.79;35.73
43989;BME280;54163;51.386;7.178;2022-08-07T10:48:25;101432.34;;;24.86;36.41
43989;BME280;54163;51.386;7.178;2022-08-07T10:51:21;101421.34;;;24.86;36.41
43989;BME280;54163;51.386;7.178;2022-08-07T10:53:56;101423.41;;;25.00;35.67
43989;BME280;54163;51.386;7.178;2022-08-07T10:56:35;101416.91;;;25.09;35.57
43989;BME280;54163;51.386;7.178;2022-08-07T10:59:14;101405.75;;;25.19;34.74
43989;BME280;54163;51.386;7.178;2022-08-07T11:01:50;101408.69;;;25.26;34.20
43989;BME280;54163;51.386;7.178;2022-08-07T11:04:30;101405.59;;;25.21;34.05
43989;BME280;54163;51.386;7.178;2022-08-07T11:07:04;101406.13;;;25.24;34.37
43989;BME280;54163;51.386;7.178;2022-08-07T11:09:37;101392.38;;;25.24;34.94
43989;BME280;54163;51.386;7.178;2022-08-07T11:12:15;101389.09;;;25.29;35.13
43989;BME280;54163;51.386;7.178;2022-08-07T11:14:45;101389.31;;;25.27;35.40
43989;BME280;54163;51.386;7.178;2022-08-07T11:17:18;101376.09;;;25.31;35.16
43989;BME280;54163;51.386;7.178;2022-08-07T11:19:50;101396.31;;;25.38;35.35
43989;BME280;54163;51.386;7.178;2022-08-07T11:22:24;101389.47;;;25.34;35.60
43989;BME280;54163;51.386;7.178;2022-08-07T11:24:57;101382.41;;;25.47;35.95
43989;BME280;54163;51.386;7.178;2022-08-07T11:27:29;101381.22;;;25.42;35.17
43989;BME280;54163;51.386;7.178;2022-08-07T11:30:02;101380.38;;;25.57;35.12
43989;BME280;54163;51.386;7.178;2022-08-07T11:32:35;101383.63;;;25.61;34.64
43989;BME280;54163;51.386;7.178;2022-08-07T11:35:09;101379.34;;;25.58;32.60
43989;BME280;54163;51.386;7.178;2022-08-07T11:37:49;101381.69;;;25.70;33.36
43989;BME280;54163;51.386;7.178;2022-08-07T11:40:28;101380.50;;;25.72;33.48
43989;BME280;54163;51.386;7.178;2022-08-07T11:43:04;101366.41;;;25.75;33.66
43989;BME280;54163;51.386;7.178;2022-08-07T11:45:36;101370.72;;;25.78;33.43
43989;BME280;54163;51.386;7.178;2022-08-07T11:48:30;101366.41;;;25.83;33.94
43989;BME280;54163;51.386;7.178;2022-08-07T11:51:19;101375.16;;;25.87;33.47
43989;BME280;54163;51.386;7.178;2022-08-07T11:53:59;101359.63;;;25.94;32.55
43989;BME280;54163;51.386;7.178;2022-08-07T11:56:44;101354.84;;;25.96;32.95
43989;BME280;54163;51.386;7.178;2022-08-07T11:59:26;101360.13;;;25.97;33.54
43989;BME280;54163;51.386;7.178;2022-08-07T12:05:01;101355.50;;;26.06;32.19
43989;BME280;54163;51.386;7.178;2022-08-07T12:07:36;101360.94;;;26.22;32.46
43989;BME280;54163;51.386;7.178;2022-08-07T12:10:07;101351.69;;;26.46;33.18
43989;BME280;54163;51.386;7.178;2022-08-07T12:12:39;101360.84;;;26.38;33.24
43989;BME280;54163;51.386;7.178;2022-08-07T12:15:12;101351.84;;;26.52;32.96
43989;BME280;54163;51.386;7.178;2022-08-07T12:17:46;101357.94;;;26.40;33.00
43989;BME280;54163;51.386;7.178;2022-08-07T12:20:20;101357.94;;;26.40;32.98
43989;BME280;54163;51.386;7.178;2022-08-07T12:25:57;101353.63;;;26.68;32.83
43989;BME280;54163;51.386;7.178;2022-08-07T12:28:33;101351.13;;;26.81;30.88
43989;BME280;54163;51.386;7.178;2022-08-07T12:31:05;101353.09;;;27.18;31.39
43989;BME280;54163;51.386;7.178;2022-08-07T12:33:35;101349.00;;;27.51;32.31
43989;BME280;54163;51.386;7.178;2022-08-07T12:36:04;101346.44;;;27.79;32.50
43989;BME280;54163;51.386;7.178;2022-08-07T12:38:34;101343.03;;;28.06;31.92
43989;BME280;54163;51.386;7.178;2022-08-07T12:41:01;101347.06;;;28.40;32.17
43989;BME280;54163;51.386;7.178;2022-08-07T12:43:30;101345.06;;;28.48;31.91
43989;BME280;54163;51.386;7.178;2022-08-07T12:46:07;101342.22;;;28.77;31.79
43989;BME280;54163;51.386;7.178;2022-08-07T12:48:46;101339.19;;;28.94;31.47
43989;BME280;54163;51.386;7.178;2022-08-07T12:51:18;101339.78;;;29.10;31.24
43989;BME280;54163;51.386;7.178;2022-08-07T12:54:03;101343.47;;;29.39;31.29
43989;BME280;54163;51.386;7.178;2022-08-07T12:56:35;101337.38;;;29.50;29.85
43989;BME280;54163;51.386;7.178;2022-08-07T12:59:05;101338.84;;;29.80;30.23
43989;BME280;54163;51.386;7.178;2022-08-07T13:01:46;101341.16;;;30.04;30.79
43989;BME280;54163;51.386;7.178;2022-08-07T13:04:27;101335.09;;;29.88;28.63
43989;BME280;54163;51.386;7.178;2022-08-07T13:07:34;101329.84;;;30.06;29.83
43989;BME280;54163;51.386;7.178;2022-08-07T13:10:18;101331.00;;;30.24;29.97
43989;BME280;54163;51.386;7.178;2022-08-07T13:13:00;101322.19;;;30.55;30.11
43989;BME280;54163;51.386;7.178;2022-08-07T13:15:36;101325.22;;;30.73;30.15
43989;BME280;54163;51.386;7.178;2022-08-07T13:18:17;101330.78;;;30.86;28.97
43989;BME280;54163;51.386;7.178;2022-08-07T13:20:52;101332.56;;;31.07;29.38
43989;BME280;54163;51.386;7.178;2022-08-07T13:23:25;101319.34;;;31.22;29.91
43989;BME280;54163;51.386;7.178;2022-08-07T13:26:00;101322.53;;;31.19;29.02
43989;BME280;54163;51.386;7.178;2022-08-07T13:28:34;101319.72;;;31.45;28.49